Time;durP1;ratioP1;P1;durP2;ratioP2;P2;SDS_P1;SDS_P2;PMS_P1;PMS_P2;Temp;Humidity;BMP_temperature;BMP_pressure;BME280_temperature;BME280_humidity;BME280_pressure;Samples;Min_cycle;Max_cycle;Signal;HPM_P1;HPM_P2
2021/11/18 00:09:17;;;;;;;11.27;5.75;;;5.80;99.90;;;;;;25839771;23;20005;-60
2021/11/18 00:19:20;;;;;;;10.20;6.22;;;5.70;99.90;;;;;;25787920;22;20031;-59
2021/11/18 00:29:22;;;;;;;10.05;5.40;;;5.70;99.90;;;;;;25838053;23;20484;-60
2021/11/18 00:39:25;;;;;;;16.90;6.43;;;5.90;99.90;;;;;;25837677;23;20012;-61
2021/11/18 00:49:27;;;;;;;9.10;4.93;;;6.00;99.90;;;;;;25787182;23;20062;-61
2021/11/18 00:59:30;;;;;;;12.55;7.18;;;5.90;99.90;;;;;;25763002;23;20008;-61
2021/11/18 01:09:33;;;;;;;9.75;5.32;;;5.80;99.90;;;;;;25834434;23;20031;-61
2021/11/18 01:19:37;;;;;;;10.55;5.97;;;6.00;99.90;;;;;;25785265;22;20050;-58
2021/11/18 01:29:41;;;;;;;11.75;5.65;;;6.10;99.90;;;;;;25833262;23;20016;-59
2021/11/18 01:39:43;;;;;;;11.50;6.32;;;6.00;99.90;;;;;;25784900;23;20008;-60
2021/11/18 01:49:48;;;;;;;8.63;5.35;;;5.80;99.90;;;;;;25836665;23;20012;-60
2021/11/18 01:59:52;;;;;;;10.95;5.50;;;5.50;99.90;;;;;;25810184;23;20062;-61
2021/11/18 02:10:29;;;;;;;11.63;6.40;;;5.30;99.90;;;;;;25800282;23;20078;-58
2021/11/18 02:20:35;;;;;;;10.82;6.05;;;5.20;99.90;;;;;;25786281;22;20024;-60
2021/11/18 02:30:42;;;;;;;8.18;4.35;;;5.40;99.90;;;;;;25763362;23;20035;-60
2021/11/18 02:40:47;;;;;;;10.80;4.55;;;5.80;99.90;;;;;;25785108;23;20032;-59
2021/11/18 02:50:53;;;;;;;11.90;5.70;;;6.10;99.90;;;;;;25844091;23;20070;-61
2021/11/18 03:01:06;;;;;;;12.70;6.18;;;6.40;99.90;;;;;;25792793;23;20338;-57
2021/11/18 03:11:11;;;;;;;8.68;5.47;;;6.50;99.90;;;;;;25842650;23;20070;-60
2021/11/18 03:21:20;;;;;;;8.65;5.15;;;6.40;99.90;;;;;;25793659;22;20020;-60
2021/11/18 03:31:28;;;;;;;9.35;4.38;;;6.00;99.90;;;;;;25842854;23;20024;-58
2021/11/18 03:41:35;;;;;;;7.50;4.15;;;5.80;99.90;;;;;;25842945;23;20008;-60
2021/11/18 03:51:41;;;;;;;6.20;3.42;;;5.60;99.90;;;;;;25793765;23;20050;-58
2021/11/18 04:01:48;;;;;;;4.60;2.50;;;5.50;99.90;;;;;;25767197;23;20523;-61
2021/11/18 04:11:53;;;;;;;4.93;2.45;;;5.30;99.90;;;;;;25791818;23;20081;-61
2021/11/18 04:21:57;;;;;;;3.20;1.95;;;5.00;99.90;;;;;;25840062;22;20070;-59
2021/11/18 04:32:11;;;;;;;3.50;2.05;;;4.80;99.90;;;;;;25815476;23;20012;-56
2021/11/18 04:42:17;;;;;;;5.45;2.20;;;4.60;99.90;;;;;;25789495;23;20042;-61
2021/11/18 04:52:30;;;;;;;3.78;2.10;;;4.50;99.90;;;;;;25788869;23;20078;-59
2021/11/18 05:02:35;;;;;;;3.47;2.08;;;4.70;99.90;;;;;;25815185;23;20449;-60
2021/11/18 05:12:39;;;;;;;4.65;2.20;;;4.90;99.90;;;;;;25812659;23;20012;-59
2021/11/18 05:22:47;;;;;;;5.18;2.95;;;4.90;99.90;;;;;;25837002;22;20020;-58
2021/11/18 05:32:56;;;;;;;4.53;2.55;;;4.80;99.90;;;;;;25836419;23;20016;-59
2021/11/18 05:43:03;;;;;;;4.38;2.42;;;4.70;99.90;;;;;;25761920;23;20012;-57
2021/11/18 05:53:07;;;;;;;4.00;2.20;;;4.50;99.90;;;;;;25785066;23;20004;-57
2021/11/18 06:03:10;;;;;;;3.35;2.03;;;4.80;99.90;;;;;;25835104;23;20016;-60
2021/11/18 06:13:15;;;;;;;4.47;2.58;;;4.60;99.90;;;;;;25809107;23;20066;-59
2021/11/18 06:23:19;;;;;;;3.30;1.90;;;4.30;99.90;;;;;;25809719;23;20393;-59
2021/11/18 06:33:23;;;;;;;5.50;2.67;;;4.40;99.90;;;;;;25834061;23;20016;-61
2021/11/18 06:43:26;;;;;;;4.68;2.70;;;4.50;99.90;;;;;;25833561;23;20012;-61
2021/11/18 06:53:31;;;;;;;4.78;2.47;;;4.40;99.90;;;;;;25809121;23;20031;-59
2021/11/18 07:03:39;;;;;;;3.40;2.03;;;5.00;99.90;;;;;;25834480;23;20020;-61
2021/11/18 07:13:44;;;;;;;4.93;2.13;;;5.50;99.90;;;;;;25833464;23;20039;-57
2021/11/18 07:23:48;;;;;;;2.97;1.75;;;5.80;99.90;;;;;;25807736;23;20015;-61
2021/11/18 07:33:51;;;;;;;4.30;1.88;;;6.30;99.90;;;;;;25839389;23;20012;-62
2021/11/18 07:43:54;;;;;;;2.47;1.40;;;7.00;99.90;;;;;;25792905;23;20088;-60
2021/11/18 07:54:17;;;;;;;2.08;1.17;;;7.50;99.90;;;;;;25824679;23;20066;-61
2021/11/18 08:04:21;;;;;;;4.53;2.78;;;8.00;99.90;;;;;;25840764;23;20357;-62
2021/11/18 08:14:29;;;;;;;4.07;2.58;;;8.70;99.90;;;;;;25789171;23;20012;-63
2021/11/18 08:24:34;;;;;;;4.60;2.28;;;9.30;99.90;;;;;;25842000;23;20086;-63
2021/11/18 08:34:38;;;;;;;3.30;1.88;;;9.80;99.90;;;;;;25807890;23;20071;-61
2021/11/18 08:44:45;;;;;;;4.65;1.88;;;10.20;99.90;;;;;;25813911;23;20062;-63
2021/11/18 08:54:53;;;;;;;2.88;1.65;;;10.60;99.90;;;;;;25804172;23;20326;-63
2021/11/18 09:04:56;;;;;;;2.35;1.30;;;10.80;99.90;;;;;;25819943;23;20034;-63
2021/11/18 09:15:01;;;;;;;2.55;1.38;;;10.70;99.90;;;;;;25813080;23;20016;-63
2021/11/18 09:25:12;;;;;;;4.22;1.83;;;10.70;99.90;;;;;;25813250;23;20020;-60
2021/11/18 09:35:20;;;;;;;2.28;1.30;;;11.00;99.90;;;;;;25812320;23;20039;-62
2021/11/18 09:45:28;;;;;;;2.25;1.38;;;11.50;99.90;;;;;;25811773;23;20105;-61
2021/11/18 09:55:43;;;;;;;2.08;1.40;;;12.00;99.90;;;;;;25835906;23;20008;-60
2021/11/18 10:06:01;;;;;;;1.55;0.90;;;12.10;99.90;;;;;;25836569;23;20070;-60
2021/11/18 10:16:18;;;;;;;2.53;1.40;;;12.50;99.90;;;;;;25760581;23;20012;-61
2021/11/18 10:26:30;;;;;;;1.08;0.70;;;12.90;99.90;;;;;;25835885;23;20401;-62
2021/11/18 10:36:51;;;;;;;;;;;13.00;99.90;;;;;;25836118;23;20012;-61
2021/11/18 10:47:04;;;;;;;1.60;0.90;;;13.00;99.90;;;;;;25836719;23;20284;-61
2021/11/18 10:57:14;;;;;;;1.90;0.90;;;12.90;99.90;;;;;;25810001;23;20072;-60
2021/11/18 11:07:35;;;;;;;2.40;1.40;;;13.20;99.90;;;;;;25840265;23;20062;-61
2021/11/18 11:18:12;;;;;;;2.35;1.30;;;13.20;99.90;;;;;;25843325;23;20255;-61
2021/11/18 11:28:41;;;;;;;3.72;2.20;;;13.30;99.90;;;;;;25842153;23;20058;-61
2021/11/18 11:39:12;;;;;;;3.03;2.13;;;13.40;99.90;;;;;;25841950;23;20028;-61
2021/11/18 11:49:23;;;;;;;5.57;3.10;;;13.30;99.90;;;;;;25791912;23;20378;-61
2021/11/18 11:59:35;;;;;;;3.57;2.30;;;13.40;99.90;;;;;;25842890;23;20101;-61
2021/11/18 12:10:00;;;;;;;6.90;2.85;;;13.40;99.90;;;;;;25793350;23;20429;-61
2021/11/18 12:20:12;;;;;;;5.90;3.70;;;13.00;99.90;;;;;;25437226;23;20053;-60
2021/11/18 12:30:30;;;;;;;5.50;3.22;;;12.50;99.90;;;;;;25439235;23;20495;-60
2021/11/18 12:41:09;;;;;;;6.63;3.85;;;12.20;99.90;;;;;;25437711;23;20025;-59
2021/11/18 12:51:44;;;;;;;9.55;4.82;;;11.80;99.90;;;;;;25534626;23;20082;-60
2021/11/18 13:01:56;;;;;;;9.48;5.80;;;11.30;99.90;;;;;;25844409;23;20004;-61
2021/11/18 13:12:01;;;;;;;;;;;10.90;99.90;;;;;;25841900;23;20031;-60
2021/11/18 13:22:21;;;;;;;8.63;5.25;;;10.40;99.90;;;;;;25813510;22;19969;-59
2021/11/18 13:32:28;;;;;;;8.40;5.00;;;10.60;99.90;;;;;;25838309;23;20008;-60
2021/11/18 13:42:33;;;;;;;8.70;4.68;;;10.80;99.90;;;;;;25810755;23;20016;-57
2021/11/18 13:52:39;;;;;;;9.60;5.13;;;10.90;99.90;;;;;;25835600;23;20438;-59
2021/11/18 14:02:57;;;;;;;10.63;6.13;;;10.90;99.90;;;;;;25785805;23;20012;-59
2021/11/18 14:13:12;;;;;;;12.30;7.55;;;10.30;99.90;;;;;;25835156;23;20012;-58
2021/11/18 14:23:24;;;;;;;15.00;7.88;;;9.70;99.90;;;;;;25834563;23;20032;-59
2021/11/18 14:33:52;;;;;;;15.75;8.35;;;9.10;99.90;;;;;;25834076;23;20526;-58
2021/11/18 14:44:01;;;;;;;19.85;10.40;;;8.50;99.90;;;;;;25833666;23;20406;-57
2021/11/18 14:54:11;;;;;;;24.63;12.05;;;8.10;99.90;;;;;;25835072;23;20013;-55
2021/11/18 15:04:19;;;;;;;24.80;13.15;;;7.80;99.90;;;;;;25783877;23;20016;-58
2021/11/18 15:14:23;;;;;;;8.73;5.05;;;7.40;99.90;;;;;;25833688;23;20012;-58
2021/11/18 15:24:31;;;;;;;6.88;3.83;;;7.00;99.90;;;;;;25783789;23;20137;-54
2021/11/18 15:34:35;;;;;;;6.47;2.50;;;6.40;99.90;;;;;;25784192;23;20070;-59
2021/11/18 15:44:39;;;;;;;6.50;3.67;;;5.90;99.90;;;;;;25784677;23;20016;-54
2021/11/18 15:54:43;;;;;;;5.53;3.42;;;5.60;99.90;;;;;;25787751;23;20016;-58
2021/11/18 16:04:48;;;;;;;7.13;2.65;;;5.30;99.90;;;;;;25791587;23;20012;-60
2021/11/18 16:15:08;;;;;;;3.80;2.10;;;5.10;99.90;;;;;;25840990;23;20099;-56
2021/11/18 16:25:14;;;;;;;4.90;2.42;;;4.90;99.90;;;;;;25837801;23;20016;-54
2021/11/18 16:35:19;;;;;;;5.30;2.65;;;4.80;99.90;;;;;;25837448;23;20020;-56
2021/11/18 16:45:23;;;;;;;3.63;2.03;;;4.60;99.90;;;;;;25836555;23;20338;-55
2021/11/18 16:55:32;;;;;;;2.88;1.90;;;4.50;99.90;;;;;;25788999;23;20070;-57
2021/11/18 17:05:38;;;;;;;5.67;2.83;;;4.30;99.90;;;;;;25837613;23;20042;-58
2021/11/18 17:15:41;;;;;;;3.03;1.67;;;4.20;99.90;;;;;;25790349;23;20508;-56
2021/11/18 17:25:44;;;;;;;2.65;1.55;;;4.10;99.90;;;;;;25839603;23;20090;-54
2021/11/18 17:35:51;;;;;;;2.85;1.50;;;4.00;99.90;;;;;;25838718;23;20283;-58
2021/11/18 17:46:02;;;;;;;4.05;2.35;;;4.00;99.90;;;;;;25812403;23;20379;-55
2021/11/18 17:56:07;;;;;;;1.75;1.23;;;3.90;99.90;;;;;;25840785;23;20089;-55
2021/11/18 18:06:13;;;;;;;2.58;1.40;;;3.80;99.90;;;;;;25816803;23;20012;-54
2021/11/18 18:16:27;;;;;;;3.80;1.70;;;3.80;99.90;;;;;;25819981;22;20047;-55
2021/11/18 18:26:33;;;;;;;1.70;0.88;;;3.70;99.90;;;;;;25791803;23;20028;-60
2021/11/18 18:36:39;;;;;;;2.08;1.30;;;3.70;99.90;;;;;;25789406;23;20047;-56
2021/11/18 18:46:46;;;;;;;3.17;0.88;;;3.60;99.90;;;;;;25786971;23;20070;-60
2021/11/18 18:56:51;;;;;;;2.10;1.02;;;3.70;99.90;;;;;;25835237;23;20004;-60
2021/11/18 19:06:54;;;;;;;2.25;1.15;;;3.60;99.90;;;;;;25783769;23;20015;-58
2021/11/18 19:16:59;;;;;;;3.08;1.40;;;3.50;99.90;;;;;;25782141;23;20506;-55
2021/11/18 19:27:26;;;;;;;3.63;1.58;;;3.40;99.90;;;;;;25834438;23;20016;-56
2021/11/18 19:37:36;;;;;;;3.22;1.33;;;3.30;99.90;;;;;;25308958;23;20043;-58
2021/11/18 19:47:39;;;;;;;2.67;1.60;;;3.40;99.90;;;;;;25308766;23;20384;-54
2021/11/18 19:57:44;;;;;;;3.17;1.55;;;3.40;99.90;;;;;;25332896;23;20013;-58
2021/11/18 20:07:46;;;;;;;2.03;1.20;;;3.40;99.90;;;;;;25387844;23;20388;-56
2021/11/18 20:17:49;;;;;;;2.00;1.10;;;3.30;99.90;;;;;;25837562;23;20384;-59
2021/11/18 20:27:53;;;;;;;2.83;1.35;;;3.20;99.90;;;;;;25808108;23;20020;-60
2021/11/18 20:37:57;;;;;;;2.80;0.93;;;3.20;99.90;;;;;;25835715;23;20020;-58
2021/11/18 20:47:59;;;;;;;1.35;0.60;;;3.10;99.90;;;;;;25837985;23;20012;-61
2021/11/18 20:58:04;;;;;;;1.23;0.50;;;3.40;99.90;;;;;;25830887;23;20204;-62
2021/11/18 21:08:11;;;;;;;1.33;0.73;;;3.30;99.90;;;;;;25835345;23;20089;-62
2021/11/18 21:18:15;;;;;;;0.95;0.60;;;3.20;99.90;;;;;;25810568;23;20004;-65
2021/11/18 21:28:20;;;;;;;1.92;0.60;;;3.10;99.90;;;;;;25824914;23;20047;-66
2021/11/18 21:38:25;;;;;;;1.38;0.75;;;2.90;99.90;;;;;;25834542;23;20008;-59
2021/11/18 21:48:36;;;;;;;1.20;0.60;;;2.90;99.90;;;;;;25834614;23;20012;-65
2021/11/18 21:58:48;;;;;;;1.13;0.30;;;3.00;99.90;;;;;;25834305;23;20016;-62
2021/11/18 22:08:51;;;;;;;1.13;0.47;;;2.90;99.90;;;;;;25781034;23;20012;-60
2021/11/18 22:18:54;;;;;;;2.20;0.70;;;2.70;99.90;;;;;;25833487;22;20434;-65
2021/11/18 22:28:56;;;;;;;1.90;0.95;;;2.70;99.90;;;;;;25828364;23;20354;-59
2021/11/18 22:39:01;;;;;;;0.82;0.50;;;2.90;99.90;;;;;;25831122;23;20012;-58
2021/11/18 22:49:06;;;;;;;0.88;0.45;;;2.80;99.90;;;;;;25835105;23;20012;-62
2021/11/18 22:59:11;;;;;;;1.60;0.50;;;2.80;99.90;;;;;;25835186;23;20039;-66
2021/11/18 23:09:18;;;;;;;1.75;1.02;;;2.70;99.90;;;;;;25840753;23;20008;-63
2021/11/18 23:19:22;;;;;;;0.77;0.47;;;2.60;99.90;;;;;;25813540;22;20020;-55
2021/11/18 23:29:28;;;;;;;0.85;0.50;;;2.60;99.90;;;;;;25835513;23;20361;-52
2021/11/18 23:39:33;;;;;;;0.88;0.50;;;2.60;99.90;;;;;;25830704;23;20020;-50
2021/11/18 23:49:36;;;;;;;0.75;0.50;;;2.40;99.90;;;;;;25837600;23;20074;-53
2021/11/18 23:59:39;;;;;;;3.15;0.52;;;2.30;99.90;;;;;;25839548;23;20016;-51
